Time;durP1;ratioP1;P1;durP2;ratioP2;P2;SDS_P1;SDS_P2;PMS_P1;PMS_P2;Temp;Humidity;BMP_temperature;BMP_pressure;BME280_temperature;BME280_humidity;BME280_pressure;Samples;Min_cycle;Max_cycle;Signal;HPM_P1;HPM_P2
2022/11/08 00:03:28;;;;;;;3.80;2.65;;;;;;;10.80;79.68;100283.22;4996190;28;20822;-84
2022/11/08 00:14:05;;;;;;;5.00;2.85;;;;;;;10.76;79.43;100280.19;5003231;28;20949;-84
2022/11/08 00:16:30;;;;;;;5.47;2.50;;;;;;;10.74;79.46;100273.38;5029368;28;20400;-84
2022/11/08 00:18:56;;;;;;;3.63;2.03;;;;;;;10.73;79.42;100285.31;5015319;28;20397;-83
2022/11/08 00:21:21;;;;;;;4.15;2.22;;;;;;;10.67;79.39;100281.69;5030558;28;20840;-84
2022/11/08 00:23:47;;;;;;;3.47;2.30;;;;;;;10.64;79.33;100276.75;5015536;28;20431;-84
2022/11/08 00:26:12;;;;;;;4.15;2.50;;;;;;;10.61;79.33;100274.53;5012559;28;20475;-84
2022/11/08 00:28:37;;;;;;;6.60;2.17;;;;;;;10.59;79.25;100265.03;5013812;28;20832;-84
2022/11/08 00:31:06;;;;;;;5.85;1.95;;;;;;;10.58;79.15;100256.09;5025219;28;20494;-84
2022/11/08 00:33:31;;;;;;;4.30;2.33;;;;;;;10.54;79.34;100252.22;5016966;28;20510;-84
2022/11/08 00:36:00;;;;;;;4.10;2.20;;;;;;;10.55;79.45;100250.34;5015307;28;20492;-84
2022/11/08 00:38:26;;;;;;;5.15;1.70;;;;;;;10.54;79.37;100243.31;5023852;28;20405;-84
2022/11/08 00:40:51;;;;;;;4.80;1.50;;;;;;;10.51;79.10;100241.06;5014212;28;20404;-84
2022/11/08 00:43:17;;;;;;;4.77;1.80;;;;;;;10.48;79.13;100238.84;5015565;28;20836;-84
2022/11/08 00:45:42;;;;;;;3.00;2.15;;;;;;;10.44;79.04;100243.94;5014607;28;20540;-84
2022/11/08 00:48:07;;;;;;;3.83;1.53;;;;;;;10.41;79.03;100247.16;5014752;28;20915;-84
2022/11/08 00:50:33;;;;;;;5.17;1.57;;;;;;;10.39;79.14;100247.41;5014852;28;20428;-85
2022/11/08 00:52:58;;;;;;;3.77;1.93;;;;;;;10.40;78.92;100243.66;5025102;28;20745;-84
2022/11/08 00:55:24;;;;;;;2.92;1.90;;;;;;;10.35;78.95;100240.84;5018165;28;20754;-84
2022/11/08 00:57:49;;;;;;;4.53;2.30;;;;;;;10.30;79.02;100245.38;5046534;28;20393;-84
2022/11/08 01:00:15;;;;;;;5.17;3.33;;;;;;;10.29;78.93;100244.56;5011765;28;20410;-84
2022/11/08 01:02:40;;;;;;;9.98;4.82;;;;;;;10.29;78.74;100254.56;5022421;28;20410;-84
2022/11/08 01:05:05;;;;;;;5.03;4.17;;;;;;;10.27;78.51;100254.00;5014764;28;20411;-84
2022/11/08 01:07:30;;;;;;;5.50;3.42;;;;;;;10.23;78.34;100245.56;5006001;28;20767;-84
2022/11/08 01:09:56;;;;;;;5.30;2.83;;;;;;;10.22;78.56;100241.19;5014758;28;20405;-84
2022/11/08 01:12:21;;;;;;;5.27;2.87;;;;;;;10.21;78.56;100239.56;5017018;28;20484;-83
2022/11/08 01:14:46;;;;;;;10.97;4.23;;;;;;;10.21;78.49;100227.88;5012609;28;20420;-84
2022/11/08 01:17:12;;;;;;;10.77;5.20;;;;;;;10.21;78.47;100227.88;5013033;28;20397;-84
2022/11/08 01:19:37;;;;;;;21.77;7.90;;;;;;;10.27;78.29;100229.63;5014423;28;20531;-84
2022/11/08 01:22:02;;;;;;;25.10;7.88;;;;;;;10.23;78.16;100229.31;5029954;28;20399;-84
2022/11/08 01:24:27;;;;;;;16.50;5.60;;;;;;;10.21;78.55;100222.47;5000214;28;20889;-84
2022/11/08 01:26:53;;;;;;;11.87;5.57;;;;;;;10.19;78.53;100224.63;5012902;28;20418;-84
2022/11/08 01:29:18;;;;;;;10.27;4.70;;;;;;;10.20;78.44;100223.56;5012960;28;20499;-84
2022/11/08 01:31:43;;;;;;;12.93;4.80;;;;;;;10.17;78.58;100213.22;5014376;28;20397;-84
2022/11/08 01:34:09;;;;;;;11.97;4.83;;;;;;;10.17;78.72;100218.66;5014611;28;20417;-84
2022/11/08 01:36:34;;;;;;;5.30;3.38;;;;;;;10.17;78.58;100213.22;5061811;28;20395;-84
2022/11/08 01:38:59;;;;;;;7.93;2.93;;;;;;;10.17;78.78;100210.53;5014451;28;20389;-84
2022/11/08 01:41:25;;;;;;;2.97;2.27;;;;;;;10.13;78.86;100206.63;5014981;28;20500;-84
2022/11/08 01:43:56;;;;;;;2.85;1.92;;;;;;;10.07;78.59;100197.63;5007733;28;20449;-84
2022/11/08 01:46:31;;;;;;;3.58;2.10;;;;;;;10.01;79.06;100200.50;5013816;28;20422;-84
2022/11/08 01:49:24;;;;;;;4.67;2.43;;;;;;;9.96;79.09;100200.41;5014596;28;20496;-84
2022/11/08 01:51:57;;;;;;;4.70;2.92;;;;;;;9.97;79.23;100183.09;5013032;28;20439;-84
2022/11/08 01:54:30;;;;;;;5.50;2.42;;;;;;;9.94;78.88;100175.47;5007139;28;20414;-84
2022/11/08 01:57:00;;;;;;;6.40;3.65;;;;;;;9.96;79.09;100176.88;5023172;28;20385;-84
2022/11/08 01:59:25;;;;;;;5.57;3.22;;;;;;;10.02;78.87;100169.63;5018176;28;20385;-84
2022/11/08 02:01:51;;;;;;;6.80;4.03;;;;;;;10.05;78.80;100177.25;5030733;28;20402;-84
2022/11/08 02:04:17;;;;;;;12.60;6.10;;;;;;;10.03;78.99;100166.69;5013500;28;20417;-84
2022/11/08 02:06:43;;;;;;;12.03;5.40;;;;;;;10.12;78.46;100164.38;5020547;28;20470;-84
2022/11/08 02:09:11;;;;;;;15.05;5.97;;;;;;;10.11;78.67;100154.63;5049641;28;20492;-84
2022/11/08 02:11:38;;;;;;;9.70;4.85;;;;;;;10.08;78.55;100149.69;5018787;28;20393;-84
2022/11/08 02:14:05;;;;;;;11.05;5.07;;;;;;;10.09;78.73;100151.34;5025023;28;20415;-84
2022/11/08 02:16:30;;;;;;;10.23;5.25;;;;;;;10.15;78.85;100148.47;5020948;28;20999;-84
2022/11/08 02:18:56;;;;;;;10.00;4.75;;;;;;;10.17;78.51;100154.47;5017927;28;20480;-84
2022/11/08 02:21:37;;;;;;;7.90;5.03;;;;;;;10.06;78.92;100151.84;5015956;28;20811;-84
2022/11/08 02:24:08;;;;;;;7.70;4.95;;;;;;;9.98;78.95;100147.66;4997966;28;20440;-84
2022/11/08 02:26:35;;;;;;;4.93;3.90;;;;;;;9.97;79.15;100150.63;5021634;28;20429;-84
2022/11/08 02:29:28;;;;;;;5.15;3.58;;;;;;;9.95;79.20;100150.03;5016892;28;20419;-84
2022/11/08 02:31:54;;;;;;;7.80;4.20;;;;;;;9.94;79.60;100159.25;5013955;28;20397;-84
2022/11/08 02:34:24;;;;;;;6.28;3.60;;;;;;;9.93;79.40;100154.88;5011692;28;20412;-84
2022/11/08 02:36:50;;;;;;;6.18;3.65;;;;;;;9.91;79.54;100149.75;5013002;28;20412;-84
2022/11/08 02:39:16;;;;;;;3.95;3.30;;;;;;;9.86;79.59;100139.66;5018874;28;20488;-84
2022/11/08 02:41:41;;;;;;;7.30;3.73;;;;;;;9.86;79.44;100147.75;5005654;28;20504;-83
2022/11/08 02:44:06;;;;;;;8.05;3.78;;;;;;;9.90;78.97;100140.78;5016429;28;20981;-84
2022/11/08 02:46:32;;;;;;;5.77;3.80;;;;;;;9.85;79.33;100142.59;5023584;28;20413;-83
2022/11/08 02:48:57;;;;;;;5.60;3.33;;;;;;;9.79;79.67;100147.09;5016380;28;20491;-84
2022/11/08 02:51:22;;;;;;;6.90;3.60;;;;;;;9.79;79.54;100146.28;5018846;28;20719;-84
2022/11/08 02:53:47;;;;;;;4.43;3.60;;;;;;;9.78;79.60;100141.97;5010274;28;20472;-84
2022/11/08 02:56:13;;;;;;;6.00;3.33;;;;;;;9.78;79.51;100144.66;5007689;28;20769;-84
2022/11/08 02:58:38;;;;;;;5.73;3.70;;;;;;;9.78;79.47;100147.38;5012784;28;20393;-84
2022/11/08 03:01:03;;;;;;;5.57;3.57;;;;;;;9.77;79.74;100153.84;5019404;28;20394;-84
2022/11/08 03:03:29;;;;;;;7.00;4.20;;;;;;;9.75;79.52;100164.91;5007439;28;20420;-83
2022/11/08 03:05:57;;;;;;;6.73;4.30;;;;;;;9.68;79.55;100166.94;5024691;28;20424;-84
2022/11/08 03:08:22;;;;;;;5.03;3.75;;;;;;;9.61;80.12;100160.91;5020217;28;20408;-84
2022/11/08 03:10:47;;;;;;;5.10;4.10;;;;;;;9.57;80.17;100157.03;5034250;28;20393;-84
2022/11/08 03:13:13;;;;;;;5.67;3.60;;;;;;;9.53;80.16;100158.59;5013560;28;20389;-84
2022/11/08 03:15:38;;;;;;;7.10;3.30;;;;;;;9.50;79.97;100158.25;5010994;28;20405;-84
2022/11/08 03:18:04;;;;;;;4.47;3.13;;;;;;;9.50;79.93;100163.66;5011246;28;20389;-84
2022/11/08 03:20:30;;;;;;;6.67;3.30;;;;;;;9.52;79.63;100153.41;5016361;28;20411;-84
2022/11/08 03:23:00;;;;;;;4.43;3.40;;;;;;;9.48;79.64;100155.81;5017593;28;20394;-84
2022/11/08 03:25:25;;;;;;;4.70;2.70;;;;;;;9.40;79.48;100153.50;5008292;28;20911;-84
2022/11/08 03:27:50;;;;;;;3.87;2.80;;;;;;;9.36;79.45;100146.94;5016431;28;20433;-84
2022/11/08 03:30:16;;;;;;;3.45;2.50;;;;;;;9.29;79.69;100144.38;5009419;28;20734;-84
2022/11/08 03:32:45;;;;;;;3.17;2.83;;;;;;;9.24;79.36;100151.59;5017953;28;20475;-84
2022/11/08 03:35:11;;;;;;;5.18;2.53;;;;;;;9.23;79.46;100155.34;5006801;28;20447;-84
2022/11/08 03:37:36;;;;;;;6.18;2.90;;;;;;;9.18;79.25;100152.56;5019199;28;20484;-83
2022/11/08 03:40:02;;;;;;;4.60;2.47;;;;;;;9.16;79.36;100152.81;5016492;28;20389;-84
2022/11/08 03:42:28;;;;;;;4.57;2.42;;;;;;;9.16;79.26;100149.28;5018056;28;20411;-85
2022/11/08 03:44:53;;;;;;;4.27;2.50;;;;;;;9.14;78.64;100146.81;5013608;28;20423;-82
2022/11/08 03:47:18;;;;;;;4.93;2.40;;;;;;;9.14;78.72;100143.31;5016011;28;20400;-84
2022/11/08 03:49:43;;;;;;;3.17;2.57;;;;;;;9.15;78.88;100142.25;5015645;28;20397;-83
2022/11/08 03:52:09;;;;;;;5.05;2.92;;;;;;;9.16;78.89;100133.88;5018075;28;20406;-84
2022/11/08 03:54:34;;;;;;;3.10;2.43;;;;;;;9.15;78.95;100139.53;5009364;28;20405;-85
2022/11/08 03:56:59;;;;;;;7.53;2.30;;;;;;;9.15;79.07;100136.84;5030163;28;20419;-85
2022/11/08 03:59:24;;;;;;;4.20;2.23;;;;;;;9.14;79.01;100136.00;5014263;28;20756;-85
2022/11/08 04:01:50;;;;;;;2.70;2.10;;;;;;;9.14;78.91;100141.41;5024923;28;20490;-85
2022/11/08 04:04:15;;;;;;;3.13;2.30;;;;;;;9.13;79.23;100133.53;5015221;28;20413;-84
2022/11/08 04:06:40;;;;;;;5.73;2.60;;;;;;;9.11;79.03;100132.97;5015837;28;20421;-83
2022/11/08 04:09:05;;;;;;;4.00;2.17;;;;;;;9.10;79.32;100128.63;5014463;28;20409;-84
2022/11/08 04:16:58;;;;;;;6.47;2.05;;;;;;;9.06;78.71;100122.06;5006612;28;20464;-84
2022/11/08 04:22:09;;;;;;;4.75;1.80;;;;;;;9.01;78.93;100125.50;5002487;28;20439;-84
2022/11/08 04:24:35;;;;;;;4.00;1.90;;;;;;;8.98;78.70;100125.16;5016308;28;20411;-84
2022/11/08 04:27:01;;;;;;;3.17;2.10;;;;;;;8.99;78.56;100114.09;5020597;28;20415;-84
2022/11/08 04:29:27;;;;;;;6.07;5.07;;;;;;;8.94;78.79;100113.19;5017053;28;20448;-84
2022/11/08 04:31:52;;;;;;;5.63;3.05;;;;;;;8.91;78.38;100111.81;5015761;28;20820;-84
2022/11/08 04:34:18;;;;;;;8.70;1.70;;;;;;;8.88;78.72;100114.16;5011799;28;20875;-84
2022/11/08 04:36:43;;;;;;;2.72;1.67;;;;;;;8.86;78.61;100112.53;5015110;28;20400;-85
2022/11/08 04:39:08;;;;;;;3.90;2.03;;;;;;;8.85;78.77;100115.47;5016088;28;20404;-84
2022/11/08 04:41:33;;;;;;;4.53;1.90;;;;;;;8.86;78.60;100109.00;5016360;28;20719;-84
2022/11/08 04:43:59;;;;;;;3.33;2.07;;;;;;;8.87;78.44;100097.13;5011075;28;20432;-85
2022/11/08 04:46:26;;;;;;;2.45;1.90;;;;;;;8.90;78.55;100106.63;5013835;28;20506;-83
2022/11/08 04:48:54;;;;;;;4.53;2.17;;;;;;;8.91;78.21;100098.28;5014966;28;20856;-84
2022/11/08 04:51:27;;;;;;;6.43;2.10;;;;;;;8.90;78.45;100103.94;5016694;28;20923;-84
2022/11/08 04:53:55;;;;;;;4.53;1.95;;;;;;;8.88;78.63;100101.47;5009414;28;20420;-84
2022/11/08 04:56:20;;;;;;;3.40;1.80;;;;;;;8.88;78.38;100103.34;5010942;28;20985;-85
2022/11/08 04:58:49;;;;;;;3.03;2.00;;;;;;;8.84;78.59;100100.31;5015587;28;20428;-84
2022/11/08 05:01:17;;;;;;;7.10;2.35;;;;;;;8.84;78.84;100098.44;5015809;28;20815;-84
2022/11/08 05:03:44;;;;;;;8.07;2.67;;;;;;;8.87;78.65;100097.13;5003355;28;20410;-85
2022/11/08 05:06:11;;;;;;;6.10;2.17;;;;;;;8.88;78.85;100092.56;5007899;28;20533;-83
2022/11/08 05:08:37;;;;;;;4.72;1.77;;;;;;;8.85;78.63;100092.00;5015626;28;20902;-84
2022/11/08 05:11:08;;;;;;;4.90;2.13;;;;;;;8.82;78.50;100095.16;5015241;28;20478;-84
2022/11/08 05:13:34;;;;;;;2.87;2.43;;;;;;;8.83;78.75;100090.56;5015444;28;20437;-85
2022/11/08 05:16:04;;;;;;;4.90;2.50;;;;;;;8.83;78.52;100085.97;5013982;28;20446;-84
2022/11/08 05:18:30;;;;;;;5.40;2.92;;;;;;;8.82;78.40;100081.63;5010433;28;20407;-81
2022/11/08 05:23:42;;;;;;;5.15;2.85;;;;;;;8.87;78.23;100083.63;5014720;28;20401;-81
2022/11/08 05:26:07;;;;;;;8.80;5.63;;;;;;;8.87;78.92;100075.50;4998033;28;20418;-84
2022/11/08 05:28:33;;;;;;;5.90;4.27;;;;;;;8.86;78.52;100079.28;5016543;28;20500;-84
2022/11/08 05:30:58;;;;;;;3.23;2.60;;;;;;;8.88;78.44;100077.16;5020462;28;20897;-80
2022/11/08 05:33:24;;;;;;;6.70;2.43;;;;;;;8.87;78.41;100078.22;5018288;28;20923;-80
2022/11/08 05:35:50;;;;;;;5.22;1.98;;;;;;;8.89;78.29;100069.88;5009730;28;20410;-82
2022/11/08 05:38:16;;;;;;;3.13;1.85;;;;;;;8.87;78.10;100070.09;5018886;28;20399;-82
2022/11/08 05:40:41;;;;;;;2.67;1.65;;;;;;;8.84;78.14;100060.63;5014499;28;20405;-81
2022/11/08 05:43:07;;;;;;;6.20;1.97;;;;;;;8.80;78.27;100058.63;5017850;28;20413;-84
2022/11/08 05:45:32;;;;;;;6.37;2.17;;;;;;;8.73;78.43;100057.94;5012073;28;20420;-79
2022/11/08 05:48:02;;;;;;;4.60;2.47;;;;;;;8.72;78.56;100050.94;4997696;28;20907;-80
2022/11/08 05:50:34;;;;;;;3.00;2.00;;;;;;;8.73;77.81;100047.16;5012011;28;20495;-80
2022/11/08 05:53:00;;;;;;;7.47;2.50;;;;;;;8.75;78.35;100048.56;5018118;28;20414;-80
2022/11/08 05:55:25;;;;;;;4.63;2.63;;;;;;;8.75;77.85;100037.75;5017400;28;20388;-83
2022/11/08 05:57:51;;;;;;;5.57;2.42;;;;;;;8.78;77.92;100039.16;5019570;28;20440;-82
2022/11/08 06:00:17;;;;;;;7.10;2.90;;;;;;;8.75;78.56;100032.34;5008064;28;20419;-81
2022/11/08 06:02:42;;;;;;;4.20;2.58;;;;;;;8.73;78.18;100034.47;5010965;28;20432;-80
2022/11/08 06:05:08;;;;;;;4.53;2.47;;;;;;;8.71;78.65;100033.06;5017612;28;20412;-80
2022/11/08 06:07:34;;;;;;;4.63;2.40;;;;;;;8.71;78.23;100033.91;5009467;28;20421;-81
2022/11/08 06:09:59;;;;;;;3.90;1.98;;;;;;;8.70;78.35;100036.84;4995303;28;20421;-81
2022/11/08 06:12:24;;;;;;;4.80;2.13;;;;;;;8.69;78.01;100036.00;5008117;28;20775;-79
2022/11/08 06:14:50;;;;;;;4.28;2.00;;;;;;;8.67;78.04;100043.53;5016404;28;20416;-79
2022/11/08 06:17:15;;;;;;;4.67;2.30;;;;;;;8.66;78.33;100050.00;4999951;28;20412;-79
2022/11/08 06:19:41;;;;;;;4.50;2.27;;;;;;;8.71;78.57;100043.88;5006047;28;20425;-80
2022/11/08 06:22:06;;;;;;;3.78;1.90;;;;;;;8.74;78.31;100060.44;5007508;28;20412;-79
2022/11/08 06:24:31;;;;;;;5.93;2.23;;;;;;;8.74;78.38;100057.72;5004161;28;20410;-79
2022/11/08 06:26:56;;;;;;;3.53;3.00;;;;;;;8.73;78.22;100064.19;5006040;28;20952;-78
2022/11/08 06:29:22;;;;;;;8.10;4.03;;;;;;;8.70;78.59;100050.34;5034987;28;20411;-82
2022/11/08 06:31:47;;;;;;;5.67;4.63;;;;;;;8.69;78.29;100059.53;5005520;28;20416;-80
2022/11/08 06:34:12;;;;;;;4.73;3.17;;;;;;;8.73;78.41;100058.78;5023380;28;20407;-79
2022/11/08 06:36:38;;;;;;;7.97;4.03;;;;;;;8.74;78.20;100065.00;5011027;28;20419;-79
2022/11/08 06:39:03;;;;;;;5.80;4.00;;;;;;;8.70;78.57;100056.56;5009888;28;20401;-79
2022/11/08 06:41:29;;;;;;;6.17;4.33;;;;;;;8.71;78.57;100060.91;5012474;28;20443;-78
2022/11/08 06:43:55;;;;;;;7.55;4.68;;;;;;;8.75;78.35;100066.66;5012732;28;20501;-78
2022/11/08 06:46:20;;;;;;;4.93;4.13;;;;;;;8.75;78.32;100072.06;5016663;28;20412;-79
2022/11/08 06:48:47;;;;;;;6.72;4.30;;;;;;;8.74;78.30;100078.50;5006826;28;21471;-82
2022/11/08 06:51:13;;;;;;;4.83;4.20;;;;;;;8.77;78.06;100061.81;5006564;28;20442;-80
2022/11/08 06:53:38;;;;;;;7.70;4.40;;;;;;;8.80;78.32;100064.84;5011105;28;20401;-79
2022/11/08 06:56:04;;;;;;;10.02;5.00;;;;;;;8.81;78.52;100061.09;5007393;28;20938;-79
2022/11/08 06:58:30;;;;;;;9.40;5.00;;;;;;;8.84;78.33;100071.41;5016006;28;20481;-79
2022/11/08 07:00:55;;;;;;;6.00;4.22;;;;;;;8.85;78.59;100073.06;5018850;28;20973;-80
2022/11/08 07:03:20;;;;;;;8.03;4.53;;;;;;;8.91;78.58;100082.06;5031853;28;20393;-78
2022/11/08 07:05:45;;;;;;;8.65;4.65;;;;;;;8.97;78.50;100077.56;5014157;28;20428;-79
2022/11/08 07:08:11;;;;;;;14.10;7.13;;;;;;;9.04;78.58;100080.94;4996083;28;20464;-82
2022/11/08 07:10:36;;;;;;;13.68;6.65;;;;;;;9.10;77.99;100075.38;5010442;28;20405;-79
2022/11/08 07:13:08;;;;;;;12.95;8.30;;;;;;;9.14;78.06;100081.13;5017311;28;20908;-79
2022/11/08 07:15:34;;;;;;;12.55;8.35;;;;;;;9.15;78.55;100071.97;5006957;28;20413;-79
2022/11/08 07:18:06;;;;;;;8.23;4.40;;;;;;;9.15;78.64;100070.06;5012145;28;20459;-80
2022/11/08 07:20:32;;;;;;;9.43;4.10;;;;;;;9.15;78.64;100072.78;5015983;28;20384;-79
2022/11/08 07:22:57;;;;;;;7.25;3.50;;;;;;;9.19;77.99;100062.28;5013298;28;20762;-80
2022/11/08 07:25:24;;;;;;;6.97;3.10;;;;;;;9.21;78.33;100066.38;5026720;28;21035;-79
2022/11/08 07:27:49;;;;;;;11.13;2.60;;;;;;;9.18;78.01;100068.75;5023680;28;20684;-80
2022/11/08 07:30:15;;;;;;;7.73;3.10;;;;;;;9.18;78.12;100071.47;5015816;28;20401;-79
2022/11/08 07:32:40;;;;;;;7.20;3.40;;;;;;;9.22;77.57;100068.00;5011753;28;20869;-80
2022/11/08 07:35:06;;;;;;;5.63;3.53;;;;;;;9.25;77.84;100064.81;5009409;28;20418;-80
2022/11/08 07:37:32;;;;;;;36.63;19.13;;;;;;;9.29;77.69;100073.25;5000557;28;20757;-80
2022/11/08 07:39:57;;;;;;;61.63;34.55;;;;;;;9.33;77.54;100067.13;5012535;28;20389;-79
2022/11/08 07:42:23;;;;;;;28.87;16.60;;;;;;;9.33;77.42;100074.41;5011882;28;20832;-80
2022/11/08 07:44:48;;;;;;;18.17;9.27;;;;;;;9.33;77.96;100067.13;5012859;28;20416;-80
2022/11/08 07:47:13;;;;;;;10.97;5.37;;;;;;;9.38;77.70;100074.50;5013070;28;20427;-80
2022/11/08 07:49:39;;;;;;;7.37;5.27;;;;;;;9.42;77.68;100066.72;5015130;28;20401;-80
2022/11/08 07:52:04;;;;;;;6.43;4.53;;;;;;;9.45;77.88;100067.03;5010808;28;20446;-80
2022/11/08 07:54:29;;;;;;;8.63;5.23;;;;;;;9.50;77.67;100077.09;5015785;28;20393;-80
2022/11/08 07:56:55;;;;;;;7.22;4.72;;;;;;;9.55;78.04;100067.19;5010898;28;20401;-80
2022/11/08 07:59:20;;;;;;;8.53;5.03;;;;;;;9.64;77.82;100079.25;5010379;28;20409;-80
2022/11/08 08:01:45;;;;;;;7.27;4.97;;;;;;;9.70;77.62;100066.59;5013074;28;20409;-80
2022/11/08 08:04:11;;;;;;;12.57;5.23;;;;;;;9.73;77.42;100066.09;5014011;28;20404;-80
2022/11/08 08:06:37;;;;;;;13.00;5.13;;;;;;;9.78;77.35;100068.91;5015597;28;20444;-80
2022/11/08 08:09:02;;;;;;;8.23;5.50;;;;;;;9.81;77.69;100069.19;5008987;28;20425;-80
2022/11/08 08:11:28;;;;;;;8.00;4.88;;;;;;;9.85;77.80;100070.34;5018433;28;20393;-80
2022/11/08 08:13:55;;;;;;;5.30;4.50;;;;;;;9.90;77.37;100081.25;5002733;28;20457;-80
2022/11/08 08:16:20;;;;;;;7.72;4.05;;;;;;;9.95;77.33;100085.06;5010702;28;20763;-80
2022/11/08 08:18:48;;;;;;;8.30;4.70;;;;;;;10.00;77.20;100096.81;5007609;28;20441;-80
2022/11/08 08:21:13;;;;;;;5.72;3.92;;;;;;;10.01;77.29;100103.03;4998916;28;20408;-80
2022/11/08 08:23:38;;;;;;;3.35;2.95;;;;;;;10.03;77.34;100107.13;4996979;28;20485;-82
2022/11/08 08:26:03;;;;;;;4.43;3.13;;;;;;;10.07;77.28;100111.00;5007464;28;20421;-80
2022/11/08 08:28:29;;;;;;;5.68;3.20;;;;;;;10.13;77.11;100109.97;5014139;28;20392;-80
2022/11/08 08:30:54;;;;;;;4.70;3.63;;;;;;;10.12;77.42;100112.94;5011964;28;20400;-80
2022/11/08 08:33:20;;;;;;;4.27;2.63;;;;;;;10.13;77.61;100112.69;5011184;28;20413;-79
2022/11/08 08:35:45;;;;;;;6.78;3.25;;;;;;;10.23;77.77;100122.88;5005335;28;20412;-80
2022/11/08 08:38:13;;;;;;;13.93;3.53;;;;;;;10.32;77.34;100115.94;5014474;28;20471;-80
2022/11/08 08:40:39;;;;;;;3.85;2.60;;;;;;;10.38;77.40;100123.88;5014857;28;20800;-80
2022/11/08 08:43:05;;;;;;;3.50;2.58;;;;;;;10.40;77.57;100118.22;5028127;28;20408;-80
2022/11/08 08:45:32;;;;;;;7.68;2.83;;;;;;;10.45;77.38;100103.91;5013910;28;20779;-80
2022/11/08 08:47:58;;;;;;;4.32;2.70;;;;;;;10.48;77.25;100115.06;5013965;28;20859;-80
2022/11/08 08:50:25;;;;;;;3.65;2.95;;;;;;;10.47;77.65;100108.03;5011166;28;20397;-83
2022/11/08 08:52:51;;;;;;;10.25;3.90;;;;;;;10.50;77.72;100112.09;5002912;28;20885;-80
2022/11/08 08:55:17;;;;;;;8.83;4.20;;;;;;;10.66;77.70;100116.63;5009194;28;20459;-79
2022/11/08 08:57:44;;;;;;;6.20;3.50;;;;;;;10.84;77.16;100117.09;5014759;28;20400;-80
2022/11/08 09:00:10;;;;;;;8.77;4.85;;;;;;;11.02;77.20;100120.53;5013924;28;20902;-79
2022/11/08 09:02:36;;;;;;;7.45;5.38;;;;;;;11.33;76.48;100122.44;5006239;28;20448;-79
2022/11/08 09:05:01;;;;;;;7.35;4.72;;;;;;;11.45;76.13;100112.28;5009153;28;20836;-80
2022/11/08 09:07:26;;;;;;;6.87;4.93;;;;;;;11.67;76.02;100109.44;5006013;28;20970;-80
2022/11/08 09:09:51;;;;;;;9.37;4.70;;;;;;;12.03;75.17;100121.38;5014478;28;20397;-79
2022/11/08 09:12:17;;;;;;;8.30;4.67;;;;;;;12.19;74.65;100118.50;5013862;28;20401;-80
2022/11/08 09:14:42;;;;;;;5.37;3.67;;;;;;;12.29;74.82;100109.59;5016384;28;20457;-80
2022/11/08 09:17:08;;;;;;;5.63;3.35;;;;;;;12.41;74.46;100116.44;5027887;28;20819;-79
2022/11/08 09:19:33;;;;;;;5.10;3.30;;;;;;;12.63;73.73;100120.88;5008002;28;20405;-79
2022/11/08 09:21:58;;;;;;;3.13;2.80;;;;;;;12.59;73.63;100131.47;5011480;28;20887;-78
2022/11/08 09:24:24;;;;;;;3.30;3.00;;;;;;;12.61;73.50;100123.88;5010480;28;20423;-79
2022/11/08 09:26:49;;;;;;;4.93;2.53;;;;;;;12.56;73.42;100120.31;5012615;28;20899;-79
2022/11/08 09:29:14;;;;;;;2.93;2.07;;;;;;;12.55;73.24;100122.19;5009663;28;20541;-80
2022/11/08 09:31:40;;;;;;;2.72;2.13;;;;;;;12.70;72.82;100111.41;5013168;28;20396;-80
2022/11/08 09:34:05;;;;;;;3.53;2.43;;;;;;;12.83;72.08;100110.88;5011188;28;20419;-79
2022/11/08 09:36:31;;;;;;;2.58;2.20;;;;;;;13.21;71.16;100103.34;5011436;28;20468;-80
2022/11/08 09:38:56;;;;;;;4.57;2.33;;;;;;;13.60;70.16;100099.00;5006402;28;20509;-79
2022/11/08 09:41:40;;;;;;;4.50;2.63;;;;;;;14.97;66.36;100100.22;5030228;28;20411;-78
2022/11/08 09:44:28;;;;;;;3.10;2.13;;;;;;;15.87;62.25;100111.53;5013365;28;20490;-78
2022/11/08 09:47:01;;;;;;;2.83;2.33;;;;;;;15.10;63.66;100106.16;5012537;28;20848;-79
2022/11/08 09:49:32;;;;;;;2.20;2.00;;;;;;;15.56;63.11;100102.00;5019318;28;20432;-79
2022/11/08 09:51:59;;;;;;;2.90;1.98;;;;;;;16.58;59.72;100100.69;5010911;28;20407;-78
2022/11/08 09:54:37;;;;;;;4.18;1.90;;;;;;;17.11;57.75;100104.06;5013126;28;20393;-79
2022/11/08 09:57:04;;;;;;;1.52;1.33;;;;;;;17.01;57.99;100106.94;5007862;28;20414;-79
2022/11/08 09:59:38;;;;;;;1.88;1.70;;;;;;;17.17;57.05;100112.19;5009926;28;20391;-79
2022/11/08 10:02:15;;;;;;;1.70;1.60;;;;;;;16.94;57.44;100105.66;5013970;28;20419;-79
2022/11/08 10:04:41;;;;;;;2.67;1.70;;;;;;;16.65;57.89;100096.75;5008802;28;20481;-80
2022/11/08 10:07:21;;;;;;;3.30;1.60;;;;;;;16.38;58.74;100094.59;5001446;28;20513;-80
2022/11/08 10:10:08;;;;;;;3.13;1.63;;;;;;;17.09;56.54;100087.09;5015465;28;20402;-80
2022/11/08 10:12:57;;;;;;;2.00;1.70;;;;;;;17.61;54.81;100093.44;5006954;28;20493;-81
2022/11/08 10:15:31;;;;;;;5.18;1.77;;;;;;;16.66;55.87;100087.47;5010325;28;20393;-80
2022/11/08 10:18:16;;;;;;;1.98;1.50;;;;;;;15.80;58.12;100078.31;5010229;28;20926;-80
2022/11/08 10:20:55;;;;;;;1.70;1.48;;;;;;;15.26;59.16;100083.09;5013651;28;20472;-81
2022/11/08 10:23:40;;;;;;;1.77;1.48;;;;;;;14.84;60.57;100086.41;5004929;28;20398;-80
2022/11/08 10:26:16;;;;;;;3.15;1.73;;;;;;;14.65;61.37;100093.59;5001469;28;20507;-80
2022/11/08 10:28:50;;;;;;;4.95;2.40;;;;;;;14.41;62.29;100086.06;5029152;28;20401;-80
2022/11/08 10:31:18;;;;;;;1.95;1.67;;;;;;;14.24;63.14;100077.38;5008551;28;20407;-80
2022/11/08 10:33:54;;;;;;;3.03;1.63;;;;;;;14.22;63.03;100082.28;5016654;28;20545;-80
2022/11/08 10:36:37;;;;;;;5.27;1.70;;;;;;;14.17;63.64;100078.75;5006963;28;20430;-80
2022/11/08 10:39:08;;;;;;;2.20;1.67;;;;;;;14.03;64.12;100081.22;5010375;28;20819;-81
2022/11/08 10:41:48;;;;;;;4.53;1.50;;;;;;;13.89;64.90;100081.03;5024940;28;20417;-80
2022/11/08 10:44:23;;;;;;;2.72;1.52;;;;;;;13.78;64.75;100068.50;5012837;28;20807;-83
2022/11/08 10:46:54;;;;;;;1.52;1.35;;;;;;;13.56;65.73;100070.72;5019308;28;20423;-79
2022/11/08 10:49:35;;;;;;;1.30;1.15;;;;;;;13.50;66.27;100074.53;5015290;28;20414;-80
2022/11/08 10:52:38;;;;;;;4.88;1.17;;;;;;;13.44;66.46;100070.16;5017053;28;20441;-80
2022/11/08 10:55:37;;;;;;;3.20;1.63;;;;;;;13.44;66.39;100065.53;5026523;28;20391;-80
2022/11/08 10:58:03;;;;;;;1.65;1.55;;;;;;;13.52;66.35;100059.56;5008098;28;20490;-79
2022/11/08 11:00:31;;;;;;;3.75;1.40;;;;;;;13.53;66.29;100054.94;5009413;28;20413;-80
2022/11/08 11:02:58;;;;;;;2.72;1.48;;;;;;;13.59;66.33;100053.00;5021228;28;20944;-80
2022/11/08 11:05:33;;;;;;;2.08;1.48;;;;;;;13.57;66.63;100055.22;5013522;28;20417;-80
2022/11/08 11:08:07;;;;;;;2.92;1.80;;;;;;;13.60;66.40;100055.44;5029335;28;20426;-79
2022/11/08 11:10:41;;;;;;;3.70;1.27;;;;;;;13.59;66.15;100053.84;5019394;28;20419;-80
2022/11/08 11:13:18;;;;;;;1.73;1.52;;;;;;;13.68;65.77;100052.19;5021284;28;20389;-79
2022/11/08 11:15:44;;;;;;;1.30;1.17;;;;;;;13.68;66.17;100056.81;5014566;28;20396;-79
2022/11/08 11:18:45;;;;;;;2.72;1.23;;;;;;;13.77;65.92;100055.97;5017835;28;20410;-80
2022/11/08 11:21:15;;;;;;;2.20;1.58;;;;;;;13.92;65.56;100049.69;5008562;28;20916;-82
2022/11/08 11:23:46;;;;;;;3.70;1.50;;;;;;;14.10;65.14;100046.34;5015207;28;20395;-80
2022/11/08 11:26:30;;;;;;;2.70;2.20;;;;;;;14.27;64.68;100052.28;5012811;28;20466;-80
2022/11/08 11:29:15;;;;;;;4.55;2.25;;;;;;;14.53;64.48;100051.09;5018502;28;20416;-81
2022/11/08 11:31:43;;;;;;;2.78;2.03;;;;;;;14.55;64.05;100045.38;5024179;28;20410;-80
2022/11/08 11:34:17;;;;;;;2.30;1.83;;;;;;;14.62;64.34;100042.34;5019529;28;20390;-81
2022/11/08 11:36:52;;;;;;;7.83;2.63;;;;;;;14.62;64.41;100037.69;5020820;28;20393;-81
2022/11/08 11:39:27;;;;;;;6.43;4.53;;;;;;;14.71;65.35;100027.81;5002876;28;20924;-81
2022/11/08 11:42:20;;;;;;;3.63;2.00;;;;;;;14.83;65.25;100016.56;5021679;28;20417;-84
2022/11/08 11:45:04;;;;;;;2.28;1.40;;;;;;;14.98;65.07;100019.19;5019244;28;20433;-84
2022/11/08 11:47:42;;;;;;;6.13;1.35;;;;;;;15.04;64.93;100021.59;5021528;28;20401;-83
2022/11/08 11:50:35;;;;;;;4.50;1.38;;;;;;;15.19;64.30;100019.81;5015139;28;20415;-82
2022/11/08 11:53:11;;;;;;;4.88;2.50;;;;;;;15.26;64.40;100018.41;5002157;28;20403;-83
2022/11/08 11:55:57;;;;;;;1.75;1.65;;;;;;;15.29;64.42;100006.09;5013845;28;20434;-82